Mapleton, UT

2:53 AM MDT on September 01, 2015 (GMT -0600)
Hobble Creek | | Change Station
CLOSE
Current Station
Personal Weather Station
Location: Springville, UT
Elevation: 4859 ft
Nearby Weather Stations

Elev 4859 ft 40.15 °N, 111.55 °W | Updated 45 seconds ago

Clear
Clear
65.7 °F
Feels Like 65.7 °F
N
6.0
Wind Variable Wind from East
Gusts 12.3 mph

Today
High -- | Low -- °F
--% Chance of Precip.
Yesterday
High -- | Low -- °F
Precip. -- in
6:53 AM 7:58 PM
Waning Gibbous, 90% visible
Pressure 30.02 in
Visibility 10.0 miles
Clouds Clear
Dew Point 48 °F
Humidity 52%
Rainfall 0.00 in
Snow Depth Not available.
UV 0 out of 12
Pollen 9.10 out of 12
Air Quality Not available.
Flu Activity Not available.
METAR KPVU 010835Z AUTO 14006KT 10SM CLR 18/07 A3002 RMK AO1
Pressure 30.02 in
Visibility 10.0 miles
Clouds Clear
Dew Point 48 °F
Humidity 52%
Rainfall 0.00 in
Snow Depth Not available.
UV 0 out of 12
Pollen 9.10 out of 12
Air Quality Not available.
Flu Activity Not available.
METAR KPVU 010835Z AUTO 14006KT 10SM CLR 18/07 A3002 RMK AO1

10-Day Weather Forecast

×

Almanac

Astronomy

Sep. 01, 2015 Rise Set
Actual Time
Civil Twilight
Nautical Twilight
Astronomical Twilight
Moon
Length of Visible Light
Length of Day
Tomorrow will be .
, % of the Moon is Illuminated

Today's Extremes

State Highs State Lows

Community

WunderPhotos

Upload Photos

1,851,490 photos uploaded!

WunderBlogs® & News

Nearby

Air Quality

  Air Quality AQ Index Pollutant
Not available.

Snow Depth

Station Depth Elevation

Earthquake Activity

City Distance Mag. Time & Date
Minimum magnitude displayed is 2.5.

Coastal Water Temperatures

Place Temperature

Stations

Nearby Weather Stations

Station Location Temp. Windchill Dew Point Humidity Wind Precip. Elev Updated Type